sensor_id;sensor_type;location;lat;lon;timestamp;P1;durP1;ratioP1;P2;durP2;ratioP2
15818;SDS011;8010;53.986;12.106;2023-07-31T00:00:32;1.83;;;0.83;;
15818;SDS011;8010;53.986;12.106;2023-07-31T00:02:58;5.47;;;1.40;;
15818;SDS011;8010;53.986;12.106;2023-07-31T00:05:23;2.90;;;0.93;;
15818;SDS011;8010;53.986;12.106;2023-07-31T00:07:49;2.70;;;1.00;;
15818;SDS011;8010;53.986;12.106;2023-07-31T00:10:14;5.73;;;1.27;;
15818;SDS011;8010;53.986;12.106;2023-07-31T00:12:41;4.33;;;1.17;;
15818;SDS011;8010;53.986;12.106;2023-07-31T00:15:08;1.63;;;1.10;;
15818;SDS011;8010;53.986;12.106;2023-07-31T00:17:34;1.23;;;0.90;;
15818;SDS011;8010;53.986;12.106;2023-07-31T00:19:59;2.80;;;0.90;;
15818;SDS011;8010;53.986;12.106;2023-07-31T00:22:25;2.90;;;1.03;;
15818;SDS011;8010;53.986;12.106;2023-07-31T00:24:51;1.90;;;0.80;;
15818;SDS011;8010;53.986;12.106;2023-07-31T00:27:16;2.40;;;0.97;;
15818;SDS011;8010;53.986;12.106;2023-07-31T00:29:42;2.87;;;1.17;;
15818;SDS011;8010;53.986;12.106;2023-07-31T00:32:07;2.10;;;1.33;;
15818;SDS011;8010;53.986;12.106;2023-07-31T00:34:33;3.23;;;1.27;;
15818;SDS011;8010;53.986;12.106;2023-07-31T00:36:59;1.83;;;1.00;;
15818;SDS011;8010;53.986;12.106;2023-07-31T00:39:24;3.60;;;1.07;;
15818;SDS011;8010;53.986;12.106;2023-07-31T00:41:50;1.13;;;1.03;;
15818;SDS011;8010;53.986;12.106;2023-07-31T00:44:15;4.77;;;1.37;;
15818;SDS011;8010;53.986;12.106;2023-07-31T00:46:41;2.23;;;1.03;;
15818;SDS011;8010;53.986;12.106;2023-07-31T00:49:06;2.37;;;1.27;;
15818;SDS011;8010;53.986;12.106;2023-07-31T00:51:33;1.40;;;1.00;;
15818;SDS011;8010;53.986;12.106;2023-07-31T00:53:59;3.03;;;1.37;;
15818;SDS011;8010;53.986;12.106;2023-07-31T00:56:26;1.67;;;0.97;;
15818;SDS011;8010;53.986;12.106;2023-07-31T00:58:53;1.70;;;0.73;;
15818;SDS011;8010;53.986;12.106;2023-07-31T01:01:18;2.90;;;1.00;;
15818;SDS011;8010;53.986;12.106;2023-07-31T01:03:44;1.80;;;0.90;;
15818;SDS011;8010;53.986;12.106;2023-07-31T01:09:11;3.10;;;1.10;;
15818;SDS011;8010;53.986;12.106;2023-07-31T01:11:56;3.23;;;1.20;;
15818;SDS011;8010;53.986;12.106;2023-07-31T01:14:25;3.77;;;1.20;;
15818;SDS011;8010;53.986;12.106;2023-07-31T01:16:50;3.47;;;1.40;;
15818;SDS011;8010;53.986;12.106;2023-07-31T01:19:16;4.83;;;1.23;;
15818;SDS011;8010;53.986;12.106;2023-07-31T01:24:28;2.23;;;1.20;;
15818;SDS011;8010;53.986;12.106;2023-07-31T01:27:15;4.23;;;1.20;;
15818;SDS011;8010;53.986;12.106;2023-07-31T01:29:52;2.87;;;1.13;;
15818;SDS011;8010;53.986;12.106;2023-07-31T01:32:25;2.20;;;1.23;;
15818;SDS011;8010;53.986;12.106;2023-07-31T01:34:53;3.40;;;1.07;;
15818;SDS011;8010;53.986;12.106;2023-07-31T01:37:19;3.03;;;1.30;;
15818;SDS011;8010;53.986;12.106;2023-07-31T01:39:45;4.30;;;1.20;;
15818;SDS011;8010;53.986;12.106;2023-07-31T01:42:10;2.30;;;1.20;;
15818;SDS011;8010;53.986;12.106;2023-07-31T01:44:36;1.97;;;1.30;;
15818;SDS011;8010;53.986;12.106;2023-07-31T01:47:01;3.63;;;1.20;;
15818;SDS011;8010;53.986;12.106;2023-07-31T01:49:27;2.20;;;1.13;;
15818;SDS011;8010;53.986;12.106;2023-07-31T01:51:52;2.40;;;1.13;;
15818;SDS011;8010;53.986;12.106;2023-07-31T01:54:18;6.03;;;1.40;;
15818;SDS011;8010;53.986;12.106;2023-07-31T01:56:43;2.10;;;1.30;;
15818;SDS011;8010;53.986;12.106;2023-07-31T01:59:10;3.70;;;1.30;;
15818;SDS011;8010;53.986;12.106;2023-07-31T02:01:35;4.77;;;1.17;;
15818;SDS011;8010;53.986;12.106;2023-07-31T02:04:01;4.87;;;1.50;;
15818;SDS011;8010;53.986;12.106;2023-07-31T02:06:26;4.40;;;1.10;;
15818;SDS011;8010;53.986;12.106;2023-07-31T02:08:52;2.00;;;1.30;;
15818;SDS011;8010;53.986;12.106;2023-07-31T02:11:17;3.37;;;1.50;;
15818;SDS011;8010;53.986;12.106;2023-07-31T02:13:43;3.63;;;1.00;;
15818;SDS011;8010;53.986;12.106;2023-07-31T02:16:08;3.67;;;1.30;;
15818;SDS011;8010;53.986;12.106;2023-07-31T02:18:34;3.53;;;1.10;;
15818;SDS011;8010;53.986;12.106;2023-07-31T02:21:00;1.33;;;1.13;;
15818;SDS011;8010;53.986;12.106;2023-07-31T02:23:25;2.87;;;1.20;;
15818;SDS011;8010;53.986;12.106;2023-07-31T02:25:50;1.47;;;1.10;;
15818;SDS011;8010;53.986;12.106;2023-07-31T02:28:16;3.63;;;1.30;;
15818;SDS011;8010;53.986;12.106;2023-07-31T02:30:44;2.87;;;1.60;;
15818;SDS011;8010;53.986;12.106;2023-07-31T02:33:11;2.90;;;1.60;;
15818;SDS011;8010;53.986;12.106;2023-07-31T02:35:36;2.37;;;1.20;;
15818;SDS011;8010;53.986;12.106;2023-07-31T02:38:02;4.77;;;1.50;;
15818;SDS011;8010;53.986;12.106;2023-07-31T02:40:27;2.70;;;1.40;;
15818;SDS011;8010;53.986;12.106;2023-07-31T02:42:53;5.13;;;1.57;;
15818;SDS011;8010;53.986;12.106;2023-07-31T02:45:18;4.83;;;1.60;;
15818;SDS011;8010;53.986;12.106;2023-07-31T02:47:44;2.17;;;1.50;;
15818;SDS011;8010;53.986;12.106;2023-07-31T02:50:09;1.80;;;1.60;;
15818;SDS011;8010;53.986;12.106;2023-07-31T02:52:35;2.70;;;1.70;;
15818;SDS011;8010;53.986;12.106;2023-07-31T02:55:01;3.80;;;1.47;;
15818;SDS011;8010;53.986;12.106;2023-07-31T02:57:26;3.53;;;1.20;;
15818;SDS011;8010;53.986;12.106;2023-07-31T02:59:52;5.73;;;1.30;;
15818;SDS011;8010;53.986;12.106;2023-07-31T03:02:17;2.13;;;1.13;;
15818;SDS011;8010;53.986;12.106;2023-07-31T03:04:43;3.07;;;1.30;;
15818;SDS011;8010;53.986;12.106;2023-07-31T03:07:08;4.40;;;1.70;;
15818;SDS011;8010;53.986;12.106;2023-07-31T03:09:34;3.50;;;1.47;;
15818;SDS011;8010;53.986;12.106;2023-07-31T03:11:59;2.97;;;1.33;;
15818;SDS011;8010;53.986;12.106;2023-07-31T03:14:25;2.03;;;1.30;;
15818;SDS011;8010;53.986;12.106;2023-07-31T03:16:51;4.53;;;1.60;;
15818;SDS011;8010;53.986;12.106;2023-07-31T03:19:17;1.90;;;1.57;;
15818;SDS011;8010;53.986;12.106;2023-07-31T03:21:43;5.80;;;1.77;;
15818;SDS011;8010;53.986;12.106;2023-07-31T03:24:08;2.07;;;1.53;;
15818;SDS011;8010;53.986;12.106;2023-07-31T03:26:34;3.00;;;1.60;;
15818;SDS011;8010;53.986;12.106;2023-07-31T03:29:00;6.83;;;2.03;;
15818;SDS011;8010;53.986;12.106;2023-07-31T03:31:25;4.07;;;2.03;;
15818;SDS011;8010;53.986;12.106;2023-07-31T03:33:51;2.60;;;1.20;;
15818;SDS011;8010;53.986;12.106;2023-07-31T03:36:16;2.63;;;1.40;;
15818;SDS011;8010;53.986;12.106;2023-07-31T03:38:42;2.50;;;1.50;;
15818;SDS011;8010;53.986;12.106;2023-07-31T03:41:07;2.93;;;1.60;;
15818;SDS011;8010;53.986;12.106;2023-07-31T03:43:33;3.80;;;1.70;;
15818;SDS011;8010;53.986;12.106;2023-07-31T03:45:59;3.40;;;1.37;;
15818;SDS011;8010;53.986;12.106;2023-07-31T03:48:25;4.97;;;1.47;;
15818;SDS011;8010;53.986;12.106;2023-07-31T03:50:51;4.40;;;1.87;;
15818;SDS011;8010;53.986;12.106;2023-07-31T03:53:16;3.03;;;1.50;;
15818;SDS011;8010;53.986;12.106;2023-07-31T03:55:42;5.77;;;2.00;;
15818;SDS011;8010;53.986;12.106;2023-07-31T03:58:07;4.23;;;1.70;;
15818;SDS011;8010;53.986;12.106;2023-07-31T04:00:33;3.93;;;1.90;;
15818;SDS011;8010;53.986;12.106;2023-07-31T04:02:58;4.07;;;1.77;;
15818;SDS011;8010;53.986;12.106;2023-07-31T04:05:24;4.40;;;2.00;;
15818;SDS011;8010;53.986;12.106;2023-07-31T04:07:50;4.50;;;1.93;;
15818;SDS011;8010;53.986;12.106;2023-07-31T04:10:15;5.47;;;2.07;;
15818;SDS011;8010;53.986;12.106;2023-07-31T04:12:41;4.20;;;1.83;;
15818;SDS011;8010;53.986;12.106;2023-07-31T04:15:06;4.30;;;2.10;;
15818;SDS011;8010;53.986;12.106;2023-07-31T04:17:32;1.93;;;1.73;;
15818;SDS011;8010;53.986;12.106;2023-07-31T04:19:57;4.17;;;1.70;;
15818;SDS011;8010;53.986;12.106;2023-07-31T04:22:23;5.20;;;2.10;;
15818;SDS011;8010;53.986;12.106;2023-07-31T04:24:49;7.23;;;2.60;;
15818;SDS011;8010;53.986;12.106;2023-07-31T04:27:14;3.70;;;1.70;;
15818;SDS011;8010;53.986;12.106;2023-07-31T04:29:39;2.80;;;1.83;;
15818;SDS011;8010;53.986;12.106;2023-07-31T04:32:07;4.17;;;2.00;;
15818;SDS011;8010;53.986;12.106;2023-07-31T04:34:33;4.40;;;1.73;;
15818;SDS011;8010;53.986;12.106;2023-07-31T04:36:58;3.87;;;2.00;;
15818;SDS011;8010;53.986;12.106;2023-07-31T04:39:24;4.27;;;1.90;;
15818;SDS011;8010;53.986;12.106;2023-07-31T04:41:49;6.43;;;1.90;;
15818;SDS011;8010;53.986;12.106;2023-07-31T04:44:15;5.33;;;2.00;;
15818;SDS011;8010;53.986;12.106;2023-07-31T04:46:40;4.50;;;2.20;;
15818;SDS011;8010;53.986;12.106;2023-07-31T04:49:06;3.43;;;1.73;;
15818;SDS011;8010;53.986;12.106;2023-07-31T04:51:31;2.03;;;1.80;;
15818;SDS011;8010;53.986;12.106;2023-07-31T04:53:57;2.10;;;1.90;;
15818;SDS011;8010;53.986;12.106;2023-07-31T04:56:22;4.93;;;2.03;;
15818;SDS011;8010;53.986;12.106;2023-07-31T04:58:48;4.70;;;2.07;;
15818;SDS011;8010;53.986;12.106;2023-07-31T05:01:13;4.10;;;2.27;;
15818;SDS011;8010;53.986;12.106;2023-07-31T05:03:39;5.87;;;2.20;;
15818;SDS011;8010;53.986;12.106;2023-07-31T05:06:04;4.53;;;2.27;;
15818;SDS011;8010;53.986;12.106;2023-07-31T05:08:30;3.53;;;2.50;;
15818;SDS011;8010;53.986;12.106;2023-07-31T05:10:55;2.90;;;2.13;;
15818;SDS011;8010;53.986;12.106;2023-07-31T05:13:21;5.13;;;2.57;;
15818;SDS011;8010;53.986;12.106;2023-07-31T05:15:46;5.73;;;2.40;;
15818;SDS011;8010;53.986;12.106;2023-07-31T05:18:14;3.90;;;2.50;;
15818;SDS011;8010;53.986;12.106;2023-07-31T05:20:40;3.10;;;2.40;;
15818;SDS011;8010;53.986;12.106;2023-07-31T05:23:05;3.93;;;3.03;;
15818;SDS011;8010;53.986;12.106;2023-07-31T05:25:31;6.93;;;2.70;;
15818;SDS011;8010;53.986;12.106;2023-07-31T05:27:56;7.13;;;2.40;;
15818;SDS011;8010;53.986;12.106;2023-07-31T05:30:22;5.80;;;2.43;;
15818;SDS011;8010;53.986;12.106;2023-07-31T05:32:48;4.43;;;2.50;;
15818;SDS011;8010;53.986;12.106;2023-07-31T05:35:13;4.03;;;2.47;;
15818;SDS011;8010;53.986;12.106;2023-07-31T05:37:39;5.17;;;2.40;;
15818;SDS011;8010;53.986;12.106;2023-07-31T05:40:04;3.70;;;2.20;;
15818;SDS011;8010;53.986;12.106;2023-07-31T05:42:30;3.77;;;2.60;;
15818;SDS011;8010;53.986;12.106;2023-07-31T05:44:56;3.23;;;2.63;;
15818;SDS011;8010;53.986;12.106;2023-07-31T05:47:21;6.57;;;2.53;;
15818;SDS011;8010;53.986;12.106;2023-07-31T05:49:48;2.90;;;2.40;;
15818;SDS011;8010;53.986;12.106;2023-07-31T05:52:14;6.20;;;2.97;;
15818;SDS011;8010;53.986;12.106;2023-07-31T05:54:40;5.83;;;2.70;;
15818;SDS011;8010;53.986;12.106;2023-07-31T05:57:06;3.50;;;2.70;;
15818;SDS011;8010;53.986;12.106;2023-07-31T05:59:32;4.67;;;2.90;;
15818;SDS011;8010;53.986;12.106;2023-07-31T06:01:58;4.67;;;2.97;;
15818;SDS011;8010;53.986;12.106;2023-07-31T06:04:24;4.87;;;2.63;;
15818;SDS011;8010;53.986;12.106;2023-07-31T06:06:50;3.50;;;3.13;;
15818;SDS011;8010;53.986;12.106;2023-07-31T06:09:16;4.17;;;2.77;;
15818;SDS011;8010;53.986;12.106;2023-07-31T06:11:41;3.17;;;2.63;;
15818;SDS011;8010;53.986;12.106;2023-07-31T06:14:07;4.97;;;3.00;;
15818;SDS011;8010;53.986;12.106;2023-07-31T06:16:32;3.73;;;2.70;;
15818;SDS011;8010;53.986;12.106;2023-07-31T06:18:58;5.37;;;3.20;;
15818;SDS011;8010;53.986;12.106;2023-07-31T06:21:23;5.03;;;3.30;;
15818;SDS011;8010;53.986;12.106;2023-07-31T06:23:49;4.00;;;2.67;;
15818;SDS011;8010;53.986;12.106;2023-07-31T06:26:15;3.43;;;3.00;;
15818;SDS011;8010;53.986;12.106;2023-07-31T06:28:40;6.50;;;2.93;;
15818;SDS011;8010;53.986;12.106;2023-07-31T06:31:06;3.97;;;2.87;;
15818;SDS011;8010;53.986;12.106;2023-07-31T06:33:31;4.27;;;2.93;;
15818;SDS011;8010;53.986;12.106;2023-07-31T06:35:57;3.90;;;3.27;;
15818;SDS011;8010;53.986;12.106;2023-07-31T06:38:24;4.27;;;3.13;;
15818;SDS011;8010;53.986;12.106;2023-07-31T06:40:50;4.60;;;2.70;;
15818;SDS011;8010;53.986;12.106;2023-07-31T06:43:16;4.73;;;3.00;;
15818;SDS011;8010;53.986;12.106;2023-07-31T06:45:41;6.97;;;3.43;;
15818;SDS011;8010;53.986;12.106;2023-07-31T06:48:07;3.90;;;3.20;;
15818;SDS011;8010;53.986;12.106;2023-07-31T06:50:33;5.57;;;2.90;;
15818;SDS011;8010;53.986;12.106;2023-07-31T06:52:58;3.40;;;3.00;;
15818;SDS011;8010;53.986;12.106;2023-07-31T06:55:24;3.03;;;2.70;;
15818;SDS011;8010;53.986;12.106;2023-07-31T06:57:51;4.07;;;3.00;;
15818;SDS011;8010;53.986;12.106;2023-07-31T07:00:17;3.33;;;2.50;;
15818;SDS011;8010;53.986;12.106;2023-07-31T07:02:44;4.80;;;3.23;;
15818;SDS011;8010;53.986;12.106;2023-07-31T07:05:09;5.17;;;2.53;;
15818;SDS011;8010;53.986;12.106;2023-07-31T07:07:35;3.80;;;2.50;;
15818;SDS011;8010;53.986;12.106;2023-07-31T07:10:01;3.57;;;2.70;;
15818;SDS011;8010;53.986;12.106;2023-07-31T07:12:31;3.00;;;2.13;;
15818;SDS011;8010;53.986;12.106;2023-07-31T07:14:57;2.50;;;2.30;;
15818;SDS011;8010;53.986;12.106;2023-07-31T07:17:23;3.20;;;2.10;;
15818;SDS011;8010;53.986;12.106;2023-07-31T07:19:49;2.70;;;2.50;;
15818;SDS011;8010;53.986;12.106;2023-07-31T07:22:15;4.83;;;2.40;;
15818;SDS011;8010;53.986;12.106;2023-07-31T07:24:41;2.47;;;2.27;;
15818;SDS011;8010;53.986;12.106;2023-07-31T07:27:06;3.43;;;2.13;;
15818;SDS011;8010;53.986;12.106;2023-07-31T07:29:33;2.43;;;2.10;;
15818;SDS011;8010;53.986;12.106;2023-07-31T07:31:59;2.73;;;1.90;;
15818;SDS011;8010;53.986;12.106;2023-07-31T07:34:28;4.63;;;2.10;;
15818;SDS011;8010;53.986;12.106;2023-07-31T07:36:54;3.83;;;2.00;;
15818;SDS011;8010;53.986;12.106;2023-07-31T07:39:20;2.90;;;1.93;;
15818;SDS011;8010;53.986;12.106;2023-07-31T07:41:46;2.27;;;1.93;;
15818;SDS011;8010;53.986;12.106;2023-07-31T07:44:12;2.07;;;1.80;;
15818;SDS011;8010;53.986;12.106;2023-07-31T07:46:38;2.90;;;2.10;;
15818;SDS011;8010;53.986;12.106;2023-07-31T07:49:04;2.60;;;1.73;;
15818;SDS011;8010;53.986;12.106;2023-07-31T07:51:29;1.90;;;1.60;;
15818;SDS011;8010;53.986;12.106;2023-07-31T07:53:56;3.80;;;1.50;;
15818;SDS011;8010;53.986;12.106;2023-07-31T07:56:25;1.70;;;1.40;;
15818;SDS011;8010;53.986;12.106;2023-07-31T07:58:51;2.60;;;1.70;;
15818;SDS011;8010;53.986;12.106;2023-07-31T08:01:17;1.90;;;1.60;;
15818;SDS011;8010;53.986;12.106;2023-07-31T08:03:43;1.30;;;1.13;;
15818;SDS011;8010;53.986;12.106;2023-07-31T08:06:08;1.93;;;1.30;;
15818;SDS011;8010;53.986;12.106;2023-07-31T08:08:35;1.60;;;1.30;;
15818;SDS011;8010;53.986;12.106;2023-07-31T08:11:01;1.47;;;1.30;;
15818;SDS011;8010;53.986;12.106;2023-07-31T08:13:26;1.30;;;1.20;;
15818;SDS011;8010;53.986;12.106;2023-07-31T08:15:52;1.77;;;1.30;;
15818;SDS011;8010;53.986;12.106;2023-07-31T08:18:17;1.30;;;1.20;;
15818;SDS011;8010;53.986;12.106;2023-07-31T08:20:43;1.10;;;1.00;;
15818;SDS011;8010;53.986;12.106;2023-07-31T08:23:09;2.03;;;1.30;;
15818;SDS011;8010;53.986;12.106;2023-07-31T08:25:35;1.50;;;1.20;;
15818;SDS011;8010;53.986;12.106;2023-07-31T08:28:01;1.20;;;1.10;;
15818;SDS011;8010;53.986;12.106;2023-07-31T08:30:27;1.13;;;1.03;;
15818;SDS011;8010;53.986;12.106;2023-07-31T08:32:52;2.73;;;1.07;;
15818;SDS011;8010;53.986;12.106;2023-07-31T08:35:18;3.00;;;1.07;;
15818;SDS011;8010;53.986;12.106;2023-07-31T08:37:43;2.00;;;1.30;;
15818;SDS011;8010;53.986;12.106;2023-07-31T08:40:09;2.10;;;1.83;;
15818;SDS011;8010;53.986;12.106;2023-07-31T08:42:42;1.40;;;1.30;;
15818;SDS011;8010;53.986;12.106;2023-07-31T08:45:09;1.37;;;1.17;;
15818;SDS011;8010;53.986;12.106;2023-07-31T08:47:39;1.03;;;0.93;;
15818;SDS011;8010;53.986;12.106;2023-07-31T08:50:05;1.53;;;1.13;;
15818;SDS011;8010;53.986;12.106;2023-07-31T08:52:31;0.97;;;0.93;;
15818;SDS011;8010;53.986;12.106;2023-07-31T08:54:57;1.60;;;1.10;;
15818;SDS011;8010;53.986;12.106;2023-07-31T08:57:24;2.47;;;1.27;;
15818;SDS011;8010;53.986;12.106;2023-07-31T08:59:49;1.10;;;0.80;;
15818;SDS011;8010;53.986;12.106;2023-07-31T09:02:16;1.00;;;0.90;;
15818;SDS011;8010;53.986;12.106;2023-07-31T09:04:43;1.20;;;1.10;;
15818;SDS011;8010;53.986;12.106;2023-07-31T09:07:09;2.40;;;1.10;;
15818;SDS011;8010;53.986;12.106;2023-07-31T09:09:38;1.70;;;1.13;;
15818;SDS011;8010;53.986;12.106;2023-07-31T09:12:03;1.00;;;0.90;;
15818;SDS011;8010;53.986;12.106;2023-07-31T09:14:30;3.20;;;1.13;;
15818;SDS011;8010;53.986;12.106;2023-07-31T09:16:56;1.37;;;1.10;;
15818;SDS011;8010;53.986;12.106;2023-07-31T09:19:29;1.70;;;1.37;;
15818;SDS011;8010;53.986;12.106;2023-07-31T09:21:59;1.33;;;1.10;;
15818;SDS011;8010;53.986;12.106;2023-07-31T09:24:28;2.20;;;1.33;;
15818;SDS011;8010;53.986;12.106;2023-07-31T09:26:55;1.30;;;1.20;;
15818;SDS011;8010;53.986;12.106;2023-07-31T09:29:22;1.80;;;1.37;;
15818;SDS011;8010;53.986;12.106;2023-07-31T09:31:48;2.40;;;1.40;;
15818;SDS011;8010;53.986;12.106;2023-07-31T09:34:13;1.00;;;0.90;;
15818;SDS011;8010;53.986;12.106;2023-07-31T09:36:39;1.40;;;1.17;;
15818;SDS011;8010;53.986;12.106;2023-07-31T09:39:09;1.70;;;1.30;;
15818;SDS011;8010;53.986;12.106;2023-07-31T09:41:36;2.60;;;1.03;;
15818;SDS011;8010;53.986;12.106;2023-07-31T09:44:05;2.23;;;1.20;;
15818;SDS011;8010;53.986;12.106;2023-07-31T09:46:31;2.50;;;1.00;;
15818;SDS011;8010;53.986;12.106;2023-07-31T09:49:06;1.37;;;1.17;;
15818;SDS011;8010;53.986;12.106;2023-07-31T09:51:34;1.30;;;1.00;;
15818;SDS011;8010;53.986;12.106;2023-07-31T09:54:03;1.47;;;1.10;;
15818;SDS011;8010;53.986;12.106;2023-07-31T09:56:45;3.33;;;1.27;;
15818;SDS011;8010;53.986;12.106;2023-07-31T09:59:13;1.90;;;1.03;;
15818;SDS011;8010;53.986;12.106;2023-07-31T10:01:45;2.07;;;1.03;;
15818;SDS011;8010;53.986;12.106;2023-07-31T10:04:12;2.77;;;1.17;;
15818;SDS011;8010;53.986;12.106;2023-07-31T10:06:39;1.10;;;1.00;;
15818;SDS011;8010;53.986;12.106;2023-07-31T10:09:06;1.33;;;1.20;;
15818;SDS011;8010;53.986;12.106;2023-07-31T10:11:44;1.27;;;1.17;;
15818;SDS011;8010;53.986;12.106;2023-07-31T10:14:16;1.20;;;1.00;;
15818;SDS011;8010;53.986;12.106;2023-07-31T10:16:46;3.10;;;1.00;;
15818;SDS011;8010;53.986;12.106;2023-07-31T10:19:12;1.70;;;1.30;;
15818;SDS011;8010;53.986;12.106;2023-07-31T10:21:37;1.20;;;1.03;;
15818;SDS011;8010;53.986;12.106;2023-07-31T10:24:03;1.43;;;1.13;;
15818;SDS011;8010;53.986;12.106;2023-07-31T10:26:30;1.50;;;1.20;;
15818;SDS011;8010;53.986;12.106;2023-07-31T10:28:57;1.50;;;1.17;;
15818;SDS011;8010;53.986;12.106;2023-07-31T10:31:24;1.33;;;1.20;;
15818;SDS011;8010;53.986;12.106;2023-07-31T10:33:50;1.10;;;0.90;;
15818;SDS011;8010;53.986;12.106;2023-07-31T10:36:18;1.17;;;0.90;;
15818;SDS011;8010;53.986;12.106;2023-07-31T10:38:44;2.57;;;1.00;;
15818;SDS011;8010;53.986;12.106;2023-07-31T10:41:11;1.90;;;1.20;;
15818;SDS011;8010;53.986;12.106;2023-07-31T10:43:37;1.43;;;0.83;;
15818;SDS011;8010;53.986;12.106;2023-07-31T10:46:06;2.67;;;0.90;;
15818;SDS011;8010;53.986;12.106;2023-07-31T10:48:36;1.60;;;1.00;;
15818;SDS011;8010;53.986;12.106;2023-07-31T10:51:06;1.10;;;1.00;;
15818;SDS011;8010;53.986;12.106;2023-07-31T10:53:34;1.40;;;0.90;;
15818;SDS011;8010;53.986;12.106;2023-07-31T10:58:30;1.00;;;0.90;;
15818;SDS011;8010;53.986;12.106;2023-07-31T11:00:58;1.90;;;1.00;;
15818;SDS011;8010;53.986;12.106;2023-07-31T11:03:40;1.07;;;0.87;;
15818;SDS011;8010;53.986;12.106;2023-07-31T11:06:11;1.20;;;0.80;;
15818;SDS011;8010;53.986;12.106;2023-07-31T11:08:41;0.80;;;0.80;;
15818;SDS011;8010;53.986;12.106;2023-07-31T11:11:16;2.20;;;0.97;;
15818;SDS011;8010;53.986;12.106;2023-07-31T11:13:47;1.83;;;0.93;;
15818;SDS011;8010;53.986;12.106;2023-07-31T11:16:14;2.37;;;1.10;;
15818;SDS011;8010;53.986;12.106;2023-07-31T11:18:41;2.10;;;1.10;;
15818;SDS011;8010;53.986;12.106;2023-07-31T11:21:21;4.83;;;1.30;;
15818;SDS011;8010;53.986;12.106;2023-07-31T11:23:48;1.30;;;0.97;;
15818;SDS011;8010;53.986;12.106;2023-07-31T11:26:15;1.20;;;1.10;;
15818;SDS011;8010;53.986;12.106;2023-07-31T11:28:42;1.10;;;0.80;;
15818;SDS011;8010;53.986;12.106;2023-07-31T11:31:10;1.20;;;0.73;;
15818;SDS011;8010;53.986;12.106;2023-07-31T11:33:36;2.87;;;0.90;;
15818;SDS011;8010;53.986;12.106;2023-07-31T11:36:01;1.10;;;0.70;;
15818;SDS011;8010;53.986;12.106;2023-07-31T11:38:28;1.07;;;0.70;;
15818;SDS011;8010;53.986;12.106;2023-07-31T11:40:56;1.03;;;0.63;;
15818;SDS011;8010;53.986;12.106;2023-07-31T11:43:24;0.80;;;0.70;;
15818;SDS011;8010;53.986;12.106;2023-07-31T11:45:54;1.77;;;0.70;;
15818;SDS011;8010;53.986;12.106;2023-07-31T11:48:21;1.30;;;0.50;;
15818;SDS011;8010;53.986;12.106;2023-07-31T11:50:56;4.53;;;0.60;;
15818;SDS011;8010;53.986;12.106;2023-07-31T11:53:27;0.83;;;0.67;;
15818;SDS011;8010;53.986;12.106;2023-07-31T11:56:03;0.67;;;0.40;;
15818;SDS011;8010;53.986;12.106;2023-07-31T11:58:30;0.50;;;0.40;;
15818;SDS011;8010;53.986;12.106;2023-07-31T12:00:57;0.83;;;0.53;;
15818;SDS011;8010;53.986;12.106;2023-07-31T12:03:24;1.17;;;0.40;;
15818;SDS011;8010;53.986;12.106;2023-07-31T12:05:50;0.60;;;0.40;;
15818;SDS011;8010;53.986;12.106;2023-07-31T12:08:15;1.40;;;0.40;;
15818;SDS011;8010;53.986;12.106;2023-07-31T12:10:41;0.40;;;0.37;;
15818;SDS011;8010;53.986;12.106;2023-07-31T12:18:05;0.77;;;0.50;;
15818;SDS011;8010;53.986;12.106;2023-07-31T12:20:39;1.63;;;0.60;;
15818;SDS011;8010;53.986;12.106;2023-07-31T12:23:12;0.73;;;0.50;;
15818;SDS011;8010;53.986;12.106;2023-07-31T12:28:29;0.80;;;0.73;;
15818;SDS011;8010;53.986;12.106;2023-07-31T12:30:58;1.30;;;0.70;;
15818;SDS011;8010;53.986;12.106;2023-07-31T12:33:29;1.07;;;0.77;;
15818;SDS011;8010;53.986;12.106;2023-07-31T12:35:57;1.77;;;0.80;;
15818;SDS011;8010;53.986;12.106;2023-07-31T12:38:23;2.73;;;0.70;;
15818;SDS011;8010;53.986;12.106;2023-07-31T12:40:49;2.20;;;0.67;;
15818;SDS011;8010;53.986;12.106;2023-07-31T12:43:14;0.60;;;0.50;;
15818;SDS011;8010;53.986;12.106;2023-07-31T12:45:40;1.00;;;0.70;;
15818;SDS011;8010;53.986;12.106;2023-07-31T12:48:06;3.90;;;0.60;;
15818;SDS011;8010;53.986;12.106;2023-07-31T12:50:31;1.87;;;0.50;;
15818;SDS011;8010;53.986;12.106;2023-07-31T12:52:57;1.30;;;0.60;;
15818;SDS011;8010;53.986;12.106;2023-07-31T12:55:23;1.37;;;0.60;;
15818;SDS011;8010;53.986;12.106;2023-07-31T12:57:49;1.40;;;0.40;;
15818;SDS011;8010;53.986;12.106;2023-07-31T13:00:15;0.57;;;0.30;;
15818;SDS011;8010;53.986;12.106;2023-07-31T13:02:41;0.60;;;0.40;;
15818;SDS011;8010;53.986;12.106;2023-07-31T13:05:07;0.40;;;0.40;;
15818;SDS011;8010;53.986;12.106;2023-07-31T13:07:33;0.93;;;0.30;;
15818;SDS011;8010;53.986;12.106;2023-07-31T13:09:59;0.77;;;0.40;;
15818;SDS011;8010;53.986;12.106;2023-07-31T13:12:24;1.07;;;0.40;;
15818;SDS011;8010;53.986;12.106;2023-07-31T13:14:50;0.60;;;0.43;;
15818;SDS011;8010;53.986;12.106;2023-07-31T13:17:16;0.63;;;0.40;;
15818;SDS011;8010;53.986;12.106;2023-07-31T13:19:42;0.80;;;0.40;;
15818;SDS011;8010;53.986;12.106;2023-07-31T13:22:08;0.50;;;0.40;;
15818;SDS011;8010;53.986;12.106;2023-07-31T13:24:34;0.90;;;0.40;;
15818;SDS011;8010;53.986;12.106;2023-07-31T13:26:59;0.80;;;0.50;;
15818;SDS011;8010;53.986;12.106;2023-07-31T13:29:25;0.57;;;0.40;;
15818;SDS011;8010;53.986;12.106;2023-07-31T13:31:50;1.33;;;0.50;;
15818;SDS011;8010;53.986;12.106;2023-07-31T13:34:17;0.43;;;0.30;;
15818;SDS011;8010;53.986;12.106;2023-07-31T13:36:42;0.60;;;0.40;;
15818;SDS011;8010;53.986;12.106;2023-07-31T13:39:08;0.77;;;0.47;;
15818;SDS011;8010;53.986;12.106;2023-07-31T13:41:33;0.60;;;0.40;;
15818;SDS011;8010;53.986;12.106;2023-07-31T13:43:59;1.63;;;0.47;;
15818;SDS011;8010;53.986;12.106;2023-07-31T13:46:24;2.20;;;0.60;;
15818;SDS011;8010;53.986;12.106;2023-07-31T13:48:50;0.50;;;0.40;;
15818;SDS011;8010;53.986;12.106;2023-07-31T13:51:16;0.53;;;0.33;;
15818;SDS011;8010;53.986;12.106;2023-07-31T13:53:42;0.60;;;0.30;;
15818;SDS011;8010;53.986;12.106;2023-07-31T13:56:07;0.50;;;0.40;;
15818;SDS011;8010;53.986;12.106;2023-07-31T13:58:33;0.53;;;0.33;;
15818;SDS011;8010;53.986;12.106;2023-07-31T14:00:58;1.23;;;0.50;;
15818;SDS011;8010;53.986;12.106;2023-07-31T14:03:24;1.00;;;0.50;;
15818;SDS011;8010;53.986;12.106;2023-07-31T14:05:49;0.70;;;0.37;;
15818;SDS011;8010;53.986;12.106;2023-07-31T14:08:16;0.70;;;0.50;;
15818;SDS011;8010;53.986;12.106;2023-07-31T14:10:42;0.50;;;0.30;;
15818;SDS011;8010;53.986;12.106;2023-07-31T14:13:07;1.07;;;0.33;;
15818;SDS011;8010;53.986;12.106;2023-07-31T14:15:33;0.90;;;0.47;;
15818;SDS011;8010;53.986;12.106;2023-07-31T14:18:00;1.20;;;0.40;;
15818;SDS011;8010;53.986;12.106;2023-07-31T14:20:26;0.40;;;0.30;;
15818;SDS011;8010;53.986;12.106;2023-07-31T14:22:52;0.60;;;0.50;;
15818;SDS011;8010;53.986;12.106;2023-07-31T14:25:17;0.70;;;0.40;;
15818;SDS011;8010;53.986;12.106;2023-07-31T14:27:43;1.17;;;0.40;;
15818;SDS011;8010;53.986;12.106;2023-07-31T14:30:08;0.93;;;0.50;;
15818;SDS011;8010;53.986;12.106;2023-07-31T14:32:34;0.63;;;0.43;;
15818;SDS011;8010;53.986;12.106;2023-07-31T14:35:01;0.60;;;0.40;;
15818;SDS011;8010;53.986;12.106;2023-07-31T14:37:28;0.60;;;0.43;;
15818;SDS011;8010;53.986;12.106;2023-07-31T14:40:05;1.53;;;0.50;;
15818;SDS011;8010;53.986;12.106;2023-07-31T14:42:32;1.00;;;0.50;;
15818;SDS011;8010;53.986;12.106;2023-07-31T14:44:57;0.60;;;0.43;;
15818;SDS011;8010;53.986;12.106;2023-07-31T14:47:23;2.70;;;0.40;;
15818;SDS011;8010;53.986;12.106;2023-07-31T14:49:48;0.77;;;0.60;;
15818;SDS011;8010;53.986;12.106;2023-07-31T14:52:14;0.90;;;0.40;;
15818;SDS011;8010;53.986;12.106;2023-07-31T14:54:39;0.63;;;0.40;;
15818;SDS011;8010;53.986;12.106;2023-07-31T14:57:05;0.80;;;0.50;;
15818;SDS011;8010;53.986;12.106;2023-07-31T14:59:31;0.50;;;0.40;;